sensor_id;sensor_type;location;lat;lon;timestamp;P1;durP1;ratioP1;P2;durP2;ratioP2
12122;SDS011;6125;59.628;17.852;2023-07-08T00:00:15;3.77;;;2.77;;
12122;SDS011;6125;59.628;17.852;2023-07-08T00:02:44;2.93;;;2.60;;
12122;SDS011;6125;59.628;17.852;2023-07-08T00:05:12;4.43;;;3.40;;
12122;SDS011;6125;59.628;17.852;2023-07-08T00:07:41;3.37;;;2.97;;
12122;SDS011;6125;59.628;17.852;2023-07-08T00:10:10;8.63;;;2.90;;
12122;SDS011;6125;59.628;17.852;2023-07-08T00:12:39;4.00;;;2.63;;
12122;SDS011;6125;59.628;17.852;2023-07-08T00:15:07;4.67;;;3.13;;
12122;SDS011;6125;59.628;17.852;2023-07-08T00:17:36;3.53;;;2.37;;
12122;SDS011;6125;59.628;17.852;2023-07-08T00:20:13;3.90;;;2.57;;
12122;SDS011;6125;59.628;17.852;2023-07-08T00:22:43;7.60;;;2.60;;
12122;SDS011;6125;59.628;17.852;2023-07-08T00:25:12;4.90;;;2.70;;
12122;SDS011;6125;59.628;17.852;2023-07-08T00:27:40;4.00;;;2.80;;
12122;SDS011;6125;59.628;17.852;2023-07-08T00:30:10;3.70;;;3.07;;
12122;SDS011;6125;59.628;17.852;2023-07-08T00:32:46;4.13;;;2.73;;
12122;SDS011;6125;59.628;17.852;2023-07-08T00:35:18;4.50;;;2.83;;
12122;SDS011;6125;59.628;17.852;2023-07-08T00:37:47;4.67;;;2.90;;
12122;SDS011;6125;59.628;17.852;2023-07-08T00:40:18;5.47;;;2.47;;
12122;SDS011;6125;59.628;17.852;2023-07-08T00:42:47;2.83;;;2.63;;
12122;SDS011;6125;59.628;17.852;2023-07-08T00:45:16;3.00;;;2.63;;
12122;SDS011;6125;59.628;17.852;2023-07-08T00:47:54;4.43;;;2.53;;
12122;SDS011;6125;59.628;17.852;2023-07-08T00:50:26;4.40;;;3.13;;
12122;SDS011;6125;59.628;17.852;2023-07-08T00:55:54;3.97;;;2.90;;
12122;SDS011;6125;59.628;17.852;2023-07-08T00:58:30;3.90;;;2.80;;
12122;SDS011;6125;59.628;17.852;2023-07-08T01:01:01;2.60;;;2.40;;
12122;SDS011;6125;59.628;17.852;2023-07-08T01:03:32;3.47;;;2.90;;
12122;SDS011;6125;59.628;17.852;2023-07-08T01:06:05;2.80;;;2.60;;
12122;SDS011;6125;59.628;17.852;2023-07-08T01:08:33;3.53;;;2.97;;
12122;SDS011;6125;59.628;17.852;2023-07-08T01:11:01;3.90;;;2.80;;
12122;SDS011;6125;59.628;17.852;2023-07-08T01:13:32;3.93;;;2.67;;
12122;SDS011;6125;59.628;17.852;2023-07-08T01:16:02;7.37;;;2.70;;
12122;SDS011;6125;59.628;17.852;2023-07-08T01:18:30;3.97;;;2.50;;
12122;SDS011;6125;59.628;17.852;2023-07-08T01:21:01;4.50;;;2.50;;
12122;SDS011;6125;59.628;17.852;2023-07-08T01:23:32;10.63;;;3.33;;
12122;SDS011;6125;59.628;17.852;2023-07-08T01:26:01;7.07;;;2.73;;
12122;SDS011;6125;59.628;17.852;2023-07-08T01:28:28;3.93;;;3.17;;
12122;SDS011;6125;59.628;17.852;2023-07-08T01:30:56;5.83;;;2.60;;
12122;SDS011;6125;59.628;17.852;2023-07-08T01:33:24;3.43;;;2.83;;
12122;SDS011;6125;59.628;17.852;2023-07-08T01:35:51;4.13;;;2.83;;
12122;SDS011;6125;59.628;17.852;2023-07-08T01:38:21;3.53;;;2.80;;
12122;SDS011;6125;59.628;17.852;2023-07-08T01:40:53;4.63;;;3.00;;
12122;SDS011;6125;59.628;17.852;2023-07-08T01:43:21;3.57;;;2.97;;
12122;SDS011;6125;59.628;17.852;2023-07-08T01:45:48;4.07;;;2.93;;
12122;SDS011;6125;59.628;17.852;2023-07-08T01:48:19;3.10;;;2.80;;
12122;SDS011;6125;59.628;17.852;2023-07-08T01:50:49;3.67;;;2.87;;
12122;SDS011;6125;59.628;17.852;2023-07-08T01:53:22;5.97;;;3.20;;
12122;SDS011;6125;59.628;17.852;2023-07-08T01:55:56;4.90;;;3.20;;
12122;SDS011;6125;59.628;17.852;2023-07-08T01:58:23;4.00;;;2.77;;
12122;SDS011;6125;59.628;17.852;2023-07-08T02:00:50;7.23;;;3.53;;
12122;SDS011;6125;59.628;17.852;2023-07-08T02:03:18;5.30;;;2.73;;
12122;SDS011;6125;59.628;17.852;2023-07-08T02:05:45;3.77;;;2.97;;
12122;SDS011;6125;59.628;17.852;2023-07-08T02:08:13;7.90;;;2.83;;
12122;SDS011;6125;59.628;17.852;2023-07-08T02:10:41;4.07;;;3.10;;
12122;SDS011;6125;59.628;17.852;2023-07-08T02:13:10;2.73;;;2.53;;
12122;SDS011;6125;59.628;17.852;2023-07-08T02:15:37;3.00;;;2.70;;
12122;SDS011;6125;59.628;17.852;2023-07-08T02:18:04;5.37;;;3.00;;
12122;SDS011;6125;59.628;17.852;2023-07-08T02:20:31;6.80;;;2.63;;
12122;SDS011;6125;59.628;17.852;2023-07-08T02:22:58;2.77;;;2.57;;
12122;SDS011;6125;59.628;17.852;2023-07-08T02:25:25;4.20;;;2.97;;
12122;SDS011;6125;59.628;17.852;2023-07-08T02:27:53;3.63;;;2.50;;
12122;SDS011;6125;59.628;17.852;2023-07-08T02:30:23;3.10;;;2.80;;
12122;SDS011;6125;59.628;17.852;2023-07-08T02:32:50;5.63;;;2.63;;
12122;SDS011;6125;59.628;17.852;2023-07-08T02:35:22;4.00;;;2.60;;
12122;SDS011;6125;59.628;17.852;2023-07-08T02:37:50;3.83;;;2.37;;
12122;SDS011;6125;59.628;17.852;2023-07-08T02:40:17;3.50;;;3.07;;
12122;SDS011;6125;59.628;17.852;2023-07-08T02:42:44;2.67;;;2.40;;
12122;SDS011;6125;59.628;17.852;2023-07-08T02:45:11;2.90;;;2.40;;
12122;SDS011;6125;59.628;17.852;2023-07-08T02:47:41;4.60;;;2.33;;
12122;SDS011;6125;59.628;17.852;2023-07-08T02:50:08;2.10;;;1.90;;
12122;SDS011;6125;59.628;17.852;2023-07-08T02:52:36;2.10;;;1.90;;
12122;SDS011;6125;59.628;17.852;2023-07-08T02:55:03;1.93;;;1.83;;
12122;SDS011;6125;59.628;17.852;2023-07-08T02:57:31;3.80;;;2.30;;
12122;SDS011;6125;59.628;17.852;2023-07-08T02:59:58;2.13;;;1.93;;
12122;SDS011;6125;59.628;17.852;2023-07-08T03:02:26;4.53;;;2.33;;
12122;SDS011;6125;59.628;17.852;2023-07-08T03:04:54;3.57;;;2.50;;
12122;SDS011;6125;59.628;17.852;2023-07-08T03:07:24;7.27;;;2.17;;
12122;SDS011;6125;59.628;17.852;2023-07-08T03:09:51;2.63;;;2.40;;
12122;SDS011;6125;59.628;17.852;2023-07-08T03:12:18;5.00;;;2.60;;
12122;SDS011;6125;59.628;17.852;2023-07-08T03:14:45;3.47;;;2.33;;
12122;SDS011;6125;59.628;17.852;2023-07-08T03:17:12;2.83;;;2.20;;
12122;SDS011;6125;59.628;17.852;2023-07-08T03:19:43;2.60;;;2.10;;
12122;SDS011;6125;59.628;17.852;2023-07-08T03:22:11;2.67;;;2.10;;
12122;SDS011;6125;59.628;17.852;2023-07-08T03:24:38;2.43;;;2.23;;
12122;SDS011;6125;59.628;17.852;2023-07-08T03:27:11;3.27;;;2.00;;
12122;SDS011;6125;59.628;17.852;2023-07-08T03:29:39;2.83;;;2.30;;
12122;SDS011;6125;59.628;17.852;2023-07-08T03:32:07;3.47;;;2.23;;
12122;SDS011;6125;59.628;17.852;2023-07-08T03:34:36;2.50;;;2.30;;
12122;SDS011;6125;59.628;17.852;2023-07-08T03:37:03;3.33;;;2.97;;
12122;SDS011;6125;59.628;17.852;2023-07-08T03:39:32;6.53;;;3.40;;
12122;SDS011;6125;59.628;17.852;2023-07-08T03:42:00;4.60;;;3.20;;
12122;SDS011;6125;59.628;17.852;2023-07-08T03:44:28;5.60;;;2.77;;
12122;SDS011;6125;59.628;17.852;2023-07-08T03:46:55;4.03;;;3.13;;
12122;SDS011;6125;59.628;17.852;2023-07-08T03:49:23;3.30;;;2.90;;
12122;SDS011;6125;59.628;17.852;2023-07-08T03:51:50;4.30;;;2.80;;
12122;SDS011;6125;59.628;17.852;2023-07-08T03:54:20;3.80;;;2.93;;
12122;SDS011;6125;59.628;17.852;2023-07-08T03:56:50;3.67;;;3.20;;
12122;SDS011;6125;59.628;17.852;2023-07-08T03:59:17;3.70;;;3.27;;
12122;SDS011;6125;59.628;17.852;2023-07-08T04:01:44;3.33;;;3.00;;
12122;SDS011;6125;59.628;17.852;2023-07-08T04:04:12;5.13;;;3.23;;
12122;SDS011;6125;59.628;17.852;2023-07-08T04:06:40;4.00;;;3.60;;
12122;SDS011;6125;59.628;17.852;2023-07-08T04:09:08;6.10;;;3.40;;
12122;SDS011;6125;59.628;17.852;2023-07-08T04:11:35;3.60;;;3.30;;
12122;SDS011;6125;59.628;17.852;2023-07-08T04:14:04;3.80;;;3.50;;
12122;SDS011;6125;59.628;17.852;2023-07-08T04:16:39;4.50;;;3.60;;
12122;SDS011;6125;59.628;17.852;2023-07-08T04:19:11;3.53;;;3.23;;
12122;SDS011;6125;59.628;17.852;2023-07-08T04:21:40;5.77;;;4.07;;
12122;SDS011;6125;59.628;17.852;2023-07-08T04:24:09;4.47;;;3.30;;
12122;SDS011;6125;59.628;17.852;2023-07-08T04:26:36;3.83;;;3.10;;
12122;SDS011;6125;59.628;17.852;2023-07-08T04:29:06;4.47;;;3.50;;
12122;SDS011;6125;59.628;17.852;2023-07-08T04:31:37;3.27;;;2.97;;
12122;SDS011;6125;59.628;17.852;2023-07-08T04:34:04;4.60;;;3.33;;
12122;SDS011;6125;59.628;17.852;2023-07-08T04:36:32;3.83;;;3.50;;
12122;SDS011;6125;59.628;17.852;2023-07-08T04:39:00;5.37;;;2.90;;
12122;SDS011;6125;59.628;17.852;2023-07-08T04:41:27;5.60;;;3.40;;
12122;SDS011;6125;59.628;17.852;2023-07-08T04:43:54;3.70;;;3.30;;
12122;SDS011;6125;59.628;17.852;2023-07-08T04:46:27;3.40;;;3.10;;
12122;SDS011;6125;59.628;17.852;2023-07-08T04:49:02;5.67;;;3.43;;
12122;SDS011;6125;59.628;17.852;2023-07-08T04:51:31;3.97;;;3.57;;
12122;SDS011;6125;59.628;17.852;2023-07-08T04:53:58;5.00;;;3.50;;
12122;SDS011;6125;59.628;17.852;2023-07-08T04:56:25;4.00;;;3.40;;
12122;SDS011;6125;59.628;17.852;2023-07-08T04:59:02;5.50;;;3.73;;
12122;SDS011;6125;59.628;17.852;2023-07-08T05:01:31;4.83;;;3.73;;
12122;SDS011;6125;59.628;17.852;2023-07-08T05:03:58;4.63;;;4.00;;
12122;SDS011;6125;59.628;17.852;2023-07-08T05:06:26;5.67;;;4.10;;
12122;SDS011;6125;59.628;17.852;2023-07-08T05:09:00;5.47;;;3.87;;
12122;SDS011;6125;59.628;17.852;2023-07-08T05:11:28;4.83;;;3.47;;
12122;SDS011;6125;59.628;17.852;2023-07-08T05:13:56;8.00;;;3.93;;
12122;SDS011;6125;59.628;17.852;2023-07-08T05:16:23;4.67;;;3.90;;
12122;SDS011;6125;59.628;17.852;2023-07-08T05:18:52;5.43;;;3.93;;
12122;SDS011;6125;59.628;17.852;2023-07-08T05:21:19;5.03;;;4.27;;
12122;SDS011;6125;59.628;17.852;2023-07-08T05:23:47;5.30;;;4.47;;
12122;SDS011;6125;59.628;17.852;2023-07-08T05:26:15;5.30;;;4.33;;
12122;SDS011;6125;59.628;17.852;2023-07-08T05:28:43;8.90;;;5.00;;
12122;SDS011;6125;59.628;17.852;2023-07-08T05:31:10;7.10;;;5.30;;
12122;SDS011;6125;59.628;17.852;2023-07-08T05:33:37;9.50;;;4.70;;
12122;SDS011;6125;59.628;17.852;2023-07-08T05:36:06;7.93;;;4.50;;
12122;SDS011;6125;59.628;17.852;2023-07-08T05:38:33;9.03;;;4.80;;
12122;SDS011;6125;59.628;17.852;2023-07-08T05:41:00;6.97;;;4.53;;
12122;SDS011;6125;59.628;17.852;2023-07-08T05:43:27;5.60;;;4.10;;
12122;SDS011;6125;59.628;17.852;2023-07-08T05:45:57;8.97;;;4.67;;
12122;SDS011;6125;59.628;17.852;2023-07-08T05:48:24;6.00;;;4.30;;
12122;SDS011;6125;59.628;17.852;2023-07-08T05:50:52;4.97;;;4.17;;
12122;SDS011;6125;59.628;17.852;2023-07-08T05:53:20;5.67;;;5.00;;
12122;SDS011;6125;59.628;17.852;2023-07-08T05:55:48;8.10;;;4.80;;
12122;SDS011;6125;59.628;17.852;2023-07-08T05:58:16;4.43;;;4.03;;
12122;SDS011;6125;59.628;17.852;2023-07-08T06:00:43;8.87;;;4.50;;
12122;SDS011;6125;59.628;17.852;2023-07-08T06:03:10;5.17;;;4.67;;
12122;SDS011;6125;59.628;17.852;2023-07-08T06:05:38;5.33;;;4.60;;
12122;SDS011;6125;59.628;17.852;2023-07-08T06:08:05;6.47;;;4.40;;
12122;SDS011;6125;59.628;17.852;2023-07-08T06:10:40;6.80;;;4.87;;
12122;SDS011;6125;59.628;17.852;2023-07-08T06:13:09;5.33;;;4.20;;
12122;SDS011;6125;59.628;17.852;2023-07-08T06:15:36;4.63;;;4.23;;
12122;SDS011;6125;59.628;17.852;2023-07-08T06:18:03;4.80;;;4.40;;
12122;SDS011;6125;59.628;17.852;2023-07-08T06:20:30;5.10;;;4.23;;
12122;SDS011;6125;59.628;17.852;2023-07-08T06:22:57;8.53;;;4.90;;
12122;SDS011;6125;59.628;17.852;2023-07-08T06:25:25;5.77;;;4.97;;
12122;SDS011;6125;59.628;17.852;2023-07-08T06:27:53;5.17;;;4.40;;
12122;SDS011;6125;59.628;17.852;2023-07-08T06:30:20;10.23;;;5.43;;
12122;SDS011;6125;59.628;17.852;2023-07-08T06:32:48;5.30;;;4.37;;
12122;SDS011;6125;59.628;17.852;2023-07-08T06:35:15;7.03;;;4.87;;
12122;SDS011;6125;59.628;17.852;2023-07-08T06:37:42;6.83;;;4.87;;
12122;SDS011;6125;59.628;17.852;2023-07-08T06:40:09;7.17;;;4.97;;
12122;SDS011;6125;59.628;17.852;2023-07-08T06:42:37;5.70;;;4.73;;
12122;SDS011;6125;59.628;17.852;2023-07-08T06:45:06;12.13;;;5.20;;
12122;SDS011;6125;59.628;17.852;2023-07-08T06:47:34;5.00;;;4.57;;
12122;SDS011;6125;59.628;17.852;2023-07-08T06:50:01;6.40;;;4.53;;
12122;SDS011;6125;59.628;17.852;2023-07-08T06:52:28;6.83;;;5.13;;
12122;SDS011;6125;59.628;17.852;2023-07-08T06:54:59;6.07;;;4.77;;
12122;SDS011;6125;59.628;17.852;2023-07-08T06:57:27;5.40;;;4.90;;
12122;SDS011;6125;59.628;17.852;2023-07-08T06:59:54;5.23;;;4.73;;
12122;SDS011;6125;59.628;17.852;2023-07-08T07:02:22;6.70;;;5.23;;
12122;SDS011;6125;59.628;17.852;2023-07-08T07:04:50;5.93;;;4.83;;
12122;SDS011;6125;59.628;17.852;2023-07-08T07:07:17;7.53;;;5.13;;
12122;SDS011;6125;59.628;17.852;2023-07-08T07:09:44;5.13;;;4.50;;
12122;SDS011;6125;59.628;17.852;2023-07-08T07:12:11;8.83;;;5.20;;
12122;SDS011;6125;59.628;17.852;2023-07-08T07:14:38;5.03;;;4.53;;
12122;SDS011;6125;59.628;17.852;2023-07-08T07:17:05;5.87;;;4.53;;
12122;SDS011;6125;59.628;17.852;2023-07-08T07:19:34;7.13;;;4.60;;
12122;SDS011;6125;59.628;17.852;2023-07-08T07:22:01;6.53;;;4.30;;
12122;SDS011;6125;59.628;17.852;2023-07-08T07:24:29;5.30;;;4.37;;
12122;SDS011;6125;59.628;17.852;2023-07-08T07:26:56;6.13;;;4.60;;
12122;SDS011;6125;59.628;17.852;2023-07-08T07:29:23;9.03;;;4.83;;
12122;SDS011;6125;59.628;17.852;2023-07-08T07:31:50;7.10;;;5.13;;
12122;SDS011;6125;59.628;17.852;2023-07-08T07:34:18;5.63;;;5.13;;
12122;SDS011;6125;59.628;17.852;2023-07-08T07:36:46;7.90;;;5.10;;
12122;SDS011;6125;59.628;17.852;2023-07-08T07:39:13;6.37;;;4.83;;
12122;SDS011;6125;59.628;17.852;2023-07-08T07:41:40;6.43;;;4.73;;
12122;SDS011;6125;59.628;17.852;2023-07-08T07:44:07;5.80;;;4.57;;
12122;SDS011;6125;59.628;17.852;2023-07-08T07:46:34;7.43;;;5.07;;
12122;SDS011;6125;59.628;17.852;2023-07-08T07:49:01;5.60;;;4.43;;
12122;SDS011;6125;59.628;17.852;2023-07-08T07:51:29;4.90;;;4.50;;
12122;SDS011;6125;59.628;17.852;2023-07-08T07:53:57;5.07;;;4.57;;
12122;SDS011;6125;59.628;17.852;2023-07-08T07:56:24;5.17;;;4.23;;
12122;SDS011;6125;59.628;17.852;2023-07-08T07:58:52;9.17;;;4.90;;
12122;SDS011;6125;59.628;17.852;2023-07-08T08:01:19;5.60;;;4.40;;
12122;SDS011;6125;59.628;17.852;2023-07-08T08:03:46;5.27;;;3.93;;
12122;SDS011;6125;59.628;17.852;2023-07-08T08:06:15;4.83;;;4.33;;
12122;SDS011;6125;59.628;17.852;2023-07-08T08:08:43;4.90;;;4.40;;
12122;SDS011;6125;59.628;17.852;2023-07-08T08:11:25;7.20;;;4.50;;
12122;SDS011;6125;59.628;17.852;2023-07-08T08:13:52;4.60;;;3.70;;
12122;SDS011;6125;59.628;17.852;2023-07-08T08:16:20;5.73;;;4.40;;
12122;SDS011;6125;59.628;17.852;2023-07-08T08:18:47;5.23;;;3.90;;
12122;SDS011;6125;59.628;17.852;2023-07-08T08:21:14;6.10;;;4.10;;
12122;SDS011;6125;59.628;17.852;2023-07-08T08:23:42;5.27;;;4.17;;
12122;SDS011;6125;59.628;17.852;2023-07-08T08:26:09;5.20;;;3.87;;
12122;SDS011;6125;59.628;17.852;2023-07-08T08:28:37;4.43;;;4.00;;
12122;SDS011;6125;59.628;17.852;2023-07-08T08:31:04;5.40;;;4.73;;
12122;SDS011;6125;59.628;17.852;2023-07-08T08:33:31;5.20;;;4.13;;
12122;SDS011;6125;59.628;17.852;2023-07-08T08:35:58;5.00;;;3.93;;
12122;SDS011;6125;59.628;17.852;2023-07-08T08:38:25;4.67;;;3.80;;
12122;SDS011;6125;59.628;17.852;2023-07-08T08:40:52;4.23;;;3.83;;
12122;SDS011;6125;59.628;17.852;2023-07-08T08:43:22;6.00;;;4.03;;
12122;SDS011;6125;59.628;17.852;2023-07-08T08:45:56;4.60;;;3.60;;
12122;SDS011;6125;59.628;17.852;2023-07-08T08:48:26;7.03;;;3.60;;
12122;SDS011;6125;59.628;17.852;2023-07-08T08:50:58;6.63;;;4.27;;
12122;SDS011;6125;59.628;17.852;2023-07-08T08:53:28;4.10;;;3.40;;
12122;SDS011;6125;59.628;17.852;2023-07-08T08:55:56;3.93;;;3.60;;
12122;SDS011;6125;59.628;17.852;2023-07-08T08:58:30;6.80;;;3.47;;
12122;SDS011;6125;59.628;17.852;2023-07-08T09:01:04;4.80;;;3.53;;
12122;SDS011;6125;59.628;17.852;2023-07-08T09:03:38;4.10;;;3.70;;
12122;SDS011;6125;59.628;17.852;2023-07-08T09:06:14;5.67;;;3.83;;
12122;SDS011;6125;59.628;17.852;2023-07-08T09:08:43;5.43;;;3.43;;
12122;SDS011;6125;59.628;17.852;2023-07-08T09:11:15;5.33;;;3.67;;
12122;SDS011;6125;59.628;17.852;2023-07-08T09:13:56;4.70;;;3.30;;
12122;SDS011;6125;59.628;17.852;2023-07-08T09:16:29;3.97;;;3.57;;
12122;SDS011;6125;59.628;17.852;2023-07-08T09:19:07;7.33;;;3.37;;
12122;SDS011;6125;59.628;17.852;2023-07-08T09:21:40;4.20;;;3.60;;
12122;SDS011;6125;59.628;17.852;2023-07-08T09:24:15;3.80;;;3.50;;
12122;SDS011;6125;59.628;17.852;2023-07-08T09:26:45;6.00;;;3.60;;
12122;SDS011;6125;59.628;17.852;2023-07-08T09:29:14;4.90;;;3.43;;
12122;SDS011;6125;59.628;17.852;2023-07-08T09:31:43;7.07;;;2.83;;
12122;SDS011;6125;59.628;17.852;2023-07-08T09:34:11;4.13;;;3.47;;
12122;SDS011;6125;59.628;17.852;2023-07-08T09:36:40;3.97;;;3.27;;
12122;SDS011;6125;59.628;17.852;2023-07-08T09:39:10;3.50;;;3.10;;
12122;SDS011;6125;59.628;17.852;2023-07-08T09:41:39;4.70;;;3.23;;
12122;SDS011;6125;59.628;17.852;2023-07-08T09:44:16;4.60;;;3.30;;
12122;SDS011;6125;59.628;17.852;2023-07-08T09:46:49;3.63;;;3.00;;
12122;SDS011;6125;59.628;17.852;2023-07-08T09:49:18;5.10;;;3.33;;
12122;SDS011;6125;59.628;17.852;2023-07-08T09:51:47;5.37;;;3.30;;
12122;SDS011;6125;59.628;17.852;2023-07-08T09:54:15;4.33;;;3.30;;
12122;SDS011;6125;59.628;17.852;2023-07-08T09:56:44;4.70;;;2.90;;
12122;SDS011;6125;59.628;17.852;2023-07-08T09:59:16;4.47;;;2.93;;
12122;SDS011;6125;59.628;17.852;2023-07-08T10:01:48;4.60;;;3.20;;
12122;SDS011;6125;59.628;17.852;2023-07-08T10:04:17;3.40;;;3.10;;
12122;SDS011;6125;59.628;17.852;2023-07-08T10:06:46;5.43;;;3.30;;
12122;SDS011;6125;59.628;17.852;2023-07-08T10:09:14;3.27;;;2.97;;
12122;SDS011;6125;59.628;17.852;2023-07-08T10:11:47;3.33;;;3.03;;
12122;SDS011;6125;59.628;17.852;2023-07-08T10:14:20;3.77;;;3.30;;
12122;SDS011;6125;59.628;17.852;2023-07-08T10:16:53;4.97;;;3.17;;
12122;SDS011;6125;59.628;17.852;2023-07-08T10:19:20;6.17;;;3.30;;
12122;SDS011;6125;59.628;17.852;2023-07-08T10:21:51;4.87;;;3.27;;
12122;SDS011;6125;59.628;17.852;2023-07-08T10:24:30;3.43;;;3.13;;
12122;SDS011;6125;59.628;17.852;2023-07-08T10:27:14;4.57;;;2.90;;
12122;SDS011;6125;59.628;17.852;2023-07-08T10:29:48;5.47;;;3.30;;
12122;SDS011;6125;59.628;17.852;2023-07-08T10:32:24;2.97;;;2.67;;
12122;SDS011;6125;59.628;17.852;2023-07-08T10:34:59;3.10;;;2.80;;
12122;SDS011;6125;59.628;17.852;2023-07-08T10:37:36;4.83;;;3.13;;
12122;SDS011;6125;59.628;17.852;2023-07-08T10:43:14;5.63;;;3.03;;
12122;SDS011;6125;59.628;17.852;2023-07-08T10:46:08;4.33;;;3.50;;
12122;SDS011;6125;59.628;17.852;2023-07-08T10:51:58;3.20;;;2.90;;
12122;SDS011;6125;59.628;17.852;2023-07-08T10:54:41;3.60;;;3.30;;
12122;SDS011;6125;59.628;17.852;2023-07-08T10:57:33;7.10;;;3.30;;
12122;SDS011;6125;59.628;17.852;2023-07-08T11:00:22;5.33;;;3.00;;
12122;SDS011;6125;59.628;17.852;2023-07-08T11:03:03;3.90;;;3.00;;
12122;SDS011;6125;59.628;17.852;2023-07-08T11:05:50;3.93;;;2.93;;
12122;SDS011;6125;59.628;17.852;2023-07-08T11:08:25;3.07;;;2.63;;
12122;SDS011;6125;59.628;17.852;2023-07-08T11:10:58;3.30;;;3.00;;
12122;SDS011;6125;59.628;17.852;2023-07-08T11:13:29;5.50;;;3.20;;
12122;SDS011;6125;59.628;17.852;2023-07-08T11:16:02;3.90;;;3.10;;
12122;SDS011;6125;59.628;17.852;2023-07-08T11:18:36;6.13;;;3.20;;
12122;SDS011;6125;59.628;17.852;2023-07-08T11:21:12;5.07;;;2.90;;
12122;SDS011;6125;59.628;17.852;2023-07-08T11:23:44;4.67;;;2.70;;
12122;SDS011;6125;59.628;17.852;2023-07-08T11:26:18;3.57;;;2.57;;
12122;SDS011;6125;59.628;17.852;2023-07-08T11:28:50;6.57;;;3.10;;
12122;SDS011;6125;59.628;17.852;2023-07-08T11:31:20;2.73;;;2.53;;
12122;SDS011;6125;59.628;17.852;2023-07-08T11:33:48;3.10;;;2.80;;
12122;SDS011;6125;59.628;17.852;2023-07-08T11:36:18;3.83;;;2.90;;
12122;SDS011;6125;59.628;17.852;2023-07-08T11:38:47;3.50;;;3.10;;
12122;SDS011;6125;59.628;17.852;2023-07-08T11:41:16;3.40;;;2.90;;
12122;SDS011;6125;59.628;17.852;2023-07-08T11:43:46;4.17;;;3.20;;
12122;SDS011;6125;59.628;17.852;2023-07-08T11:46:18;3.87;;;2.77;;
12122;SDS011;6125;59.628;17.852;2023-07-08T11:48:51;2.93;;;2.63;;
12122;SDS011;6125;59.628;17.852;2023-07-08T11:51:22;3.10;;;2.80;;
12122;SDS011;6125;59.628;17.852;2023-07-08T11:53:58;3.53;;;3.00;;
12122;SDS011;6125;59.628;17.852;2023-07-08T11:56:27;3.70;;;2.37;;
12122;SDS011;6125;59.628;17.852;2023-07-08T11:59:08;3.97;;;2.57;;
12122;SDS011;6125;59.628;17.852;2023-07-08T12:01:46;3.33;;;2.50;;
12122;SDS011;6125;59.628;17.852;2023-07-08T12:04:16;3.07;;;2.77;;
12122;SDS011;6125;59.628;17.852;2023-07-08T12:06:53;2.90;;;2.63;;
12122;SDS011;6125;59.628;17.852;2023-07-08T12:09:35;3.27;;;2.87;;
12122;SDS011;6125;59.628;17.852;2023-07-08T12:12:06;4.07;;;3.20;;
12122;SDS011;6125;59.628;17.852;2023-07-08T12:14:40;3.20;;;2.90;;
12122;SDS011;6125;59.628;17.852;2023-07-08T12:17:10;3.00;;;2.73;;
12122;SDS011;6125;59.628;17.852;2023-07-08T12:19:38;4.17;;;3.10;;
12122;SDS011;6125;59.628;17.852;2023-07-08T12:22:10;3.23;;;2.93;;
12122;SDS011;6125;59.628;17.852;2023-07-08T12:24:38;4.30;;;3.07;;
12122;SDS011;6125;59.628;17.852;2023-07-08T12:27:07;4.90;;;2.90;;
12122;SDS011;6125;59.628;17.852;2023-07-08T12:29:35;4.30;;;2.97;;
12122;SDS011;6125;59.628;17.852;2023-07-08T12:32:03;5.17;;;3.10;;
12122;SDS011;6125;59.628;17.852;2023-07-08T12:34:31;3.10;;;2.80;;
12122;SDS011;6125;59.628;17.852;2023-07-08T12:36:59;3.87;;;3.00;;
12122;SDS011;6125;59.628;17.852;2023-07-08T12:39:27;3.03;;;2.73;;
12122;SDS011;6125;59.628;17.852;2023-07-08T12:42:00;5.67;;;2.70;;
12122;SDS011;6125;59.628;17.852;2023-07-08T12:44:29;2.97;;;2.77;;
12122;SDS011;6125;59.628;17.852;2023-07-08T12:47:00;3.27;;;2.97;;
12122;SDS011;6125;59.628;17.852;2023-07-08T12:49:28;3.57;;;2.67;;
12122;SDS011;6125;59.628;17.852;2023-07-08T12:51:55;4.10;;;3.00;;
12122;SDS011;6125;59.628;17.852;2023-07-08T12:54:22;3.73;;;2.63;;
12122;SDS011;6125;59.628;17.852;2023-07-08T12:56:52;3.20;;;2.70;;
12122;SDS011;6125;59.628;17.852;2023-07-08T12:59:21;3.60;;;2.77;;
12122;SDS011;6125;59.628;17.852;2023-07-08T13:01:49;3.10;;;2.80;;
12122;SDS011;6125;59.628;17.852;2023-07-08T13:04:18;31.60;;;4.10;;
12122;SDS011;6125;59.628;17.852;2023-07-08T13:06:46;6.03;;;3.37;;
12122;SDS011;6125;59.628;17.852;2023-07-08T13:09:24;9.57;;;3.40;;
12122;SDS011;6125;59.628;17.852;2023-07-08T13:12:03;16.33;;;3.93;;
12122;SDS011;6125;59.628;17.852;2023-07-08T13:14:36;5.03;;;3.83;;
12122;SDS011;6125;59.628;17.852;2023-07-08T13:17:08;6.87;;;4.33;;
12122;SDS011;6125;59.628;17.852;2023-07-08T13:19:38;9.07;;;4.20;;
12122;SDS011;6125;59.628;17.852;2023-07-08T13:22:08;6.60;;;4.03;;
12122;SDS011;6125;59.628;17.852;2023-07-08T13:24:40;7.17;;;4.33;;
12122;SDS011;6125;59.628;17.852;2023-07-08T13:27:13;5.77;;;4.47;;
12122;SDS011;6125;59.628;17.852;2023-07-08T13:29:46;4.97;;;4.27;;
12122;SDS011;6125;59.628;17.852;2023-07-08T13:32:13;7.97;;;3.40;;
12122;SDS011;6125;59.628;17.852;2023-07-08T13:34:40;4.00;;;3.43;;
12122;SDS011;6125;59.628;17.852;2023-07-08T13:37:09;5.20;;;2.90;;
12122;SDS011;6125;59.628;17.852;2023-07-08T13:39:38;3.30;;;2.87;;
12122;SDS011;6125;59.628;17.852;2023-07-08T13:42:11;4.37;;;3.27;;
12122;SDS011;6125;59.628;17.852;2023-07-08T13:44:42;5.77;;;3.10;;
12122;SDS011;6125;59.628;17.852;2023-07-08T13:47:19;5.17;;;2.80;;
12122;SDS011;6125;59.628;17.852;2023-07-08T13:49:47;3.53;;;3.10;;
12122;SDS011;6125;59.628;17.852;2023-07-08T13:52:21;3.00;;;2.67;;
12122;SDS011;6125;59.628;17.852;2023-07-08T13:54:49;3.50;;;2.43;;
12122;SDS011;6125;59.628;17.852;2023-07-08T13:57:21;3.27;;;2.40;;
12122;SDS011;6125;59.628;17.852;2023-07-08T13:59:49;3.87;;;2.50;;
12122;SDS011;6125;59.628;17.852;2023-07-08T14:02:16;3.50;;;2.93;;
12122;SDS011;6125;59.628;17.852;2023-07-08T14:04:45;2.67;;;2.47;;
12122;SDS011;6125;59.628;17.852;2023-07-08T14:07:14;3.00;;;2.27;;
12122;SDS011;6125;59.628;17.852;2023-07-08T14:09:43;2.83;;;2.57;;
12122;SDS011;6125;59.628;17.852;2023-07-08T14:12:10;3.00;;;2.40;;
12122;SDS011;6125;59.628;17.852;2023-07-08T14:14:39;3.00;;;2.40;;
12122;SDS011;6125;59.628;17.852;2023-07-08T14:17:08;2.30;;;2.10;;
12122;SDS011;6125;59.628;17.852;2023-07-08T14:19:37;3.77;;;2.40;;
12122;SDS011;6125;59.628;17.852;2023-07-08T14:22:09;2.40;;;2.20;;
12122;SDS011;6125;59.628;17.852;2023-07-08T14:24:47;10.50;;;3.10;;
12122;SDS011;6125;59.628;17.852;2023-07-08T14:27:14;3.20;;;2.30;;
12122;SDS011;6125;59.628;17.852;2023-07-08T14:29:45;4.27;;;2.67;;
12122;SDS011;6125;59.628;17.852;2023-07-08T14:32:15;4.10;;;2.47;;
12122;SDS011;6125;59.628;17.852;2023-07-08T14:34:47;2.70;;;2.30;;
12122;SDS011;6125;59.628;17.852;2023-07-08T14:37:18;3.87;;;2.20;;
12122;SDS011;6125;59.628;17.852;2023-07-08T14:39:46;2.93;;;2.63;;
12122;SDS011;6125;59.628;17.852;2023-07-08T14:42:14;3.80;;;2.50;;
12122;SDS011;6125;59.628;17.852;2023-07-08T14:44:45;4.50;;;2.47;;
12122;SDS011;6125;59.628;17.852;2023-07-08T14:47:15;2.80;;;2.10;;
12122;SDS011;6125;59.628;17.852;2023-07-08T14:49:44;2.87;;;2.40;;
12122;SDS011;6125;59.628;17.852;2023-07-08T14:52:11;2.77;;;2.30;;
12122;SDS011;6125;59.628;17.852;2023-07-08T14:54:39;2.60;;;2.40;;
12122;SDS011;6125;59.628;17.852;2023-07-08T14:57:06;2.80;;;2.47;;
12122;SDS011;6125;59.628;17.852;2023-07-08T14:59:34;2.57;;;2.33;;
12122;SDS011;6125;59.628;17.852;2023-07-08T15:02:10;3.70;;;2.20;;
12122;SDS011;6125;59.628;17.852;2023-07-08T15:04:44;3.23;;;2.30;;
12122;SDS011;6125;59.628;17.852;2023-07-08T15:07:11;4.10;;;2.53;;
12122;SDS011;6125;59.628;17.852;2023-07-08T15:09:38;2.80;;;2.23;;
12122;SDS011;6125;59.628;17.852;2023-07-08T15:12:07;4.83;;;2.80;;